Kezdőlap
METAR-TAF:

METAR-TAF

Repülőterek :

Tahoua, Niger

földrajzi szélesség: 14-54N, földrajzi hosszúság: 005-15E, magasság: 386 m

Jelenlegi meteorológiai megfigyelések

A jelentés 5 órával és 33 perccel ezelõtt készült, 18:00 UTC
Délnyugati szél 7 kt
Hőmérséklet 37°C
Páratartalom 31%
Légköri nyomás 1010 hPa
Látótávolság 10 km, vagy több
felhőtlen 1500 m magasságban, és nincs gomolyfelhõ

METAR: DRRT 171800Z 23007KT CAVOK 37/17 Q1010

Idő: 00:33 (23:33 UTC)


TAF: hiányzik

Meteorológiai megfigyelések és előrejelzések több, mint 4000 repülőtéren (METAR és TAF jelentéseket).

A térképen piros és sárga pontok jelzik az elérhető meteorológiai állomásokat.

Mozgassa az egeret a pont fölött, hogy megjelenjen az állomás neve.

Azután kattintson az időjárási megfigyelések és előrejelzések megtekintéséhez.

A térkép megváltoztatása: kattintson a fekete keresztel jelölt zöld gombra ráközelítéshez, a vonallal jelölt zöld gombra távolításhoz, vagy a zöld nyilakra a szomszédos térképek eléréséhez.


METAR-TAF: